Angkor International Airport
VDSR : now visible

Aeroporto :











RITROVATECI SU...

 
LOGIN :

Iscrizione | Disclaimer

   EN    FR    IT 

 









Sommario :    VFR   VFR Marginale   IFR   IFR Intensivo   IFR Molto Intensivo
Visibilità : 
Base nubi : 
>= 8 km
>= 3000ft
5 / 8 km
1000 / 3000 ft
1500m / 5 km
500 / 1000 ft
800 / 1500m
200 / 500 ft
< 800m
< 200 ft
Simboli :   Temporali  Nebbia  Neve Forte  Precipitazioni Forti  Vento > 20 kt






- Altitudine del aeroporto : 60 ft
- Codice IATA : REP


VDSR - Angkor International

ULTIMO METAR :
  • 280600Z 15008KT 9999 FEW017 33/14 Q1009

METARs OBSOLETI :
  • 280530Z 12007KT 9999 FEW017 32/14 Q1010
  • 280500Z 09009KT 9999 FEW017 32/13 Q1010
  • 280430Z 09009KT 9999 FEW017 31/13 Q1011
  • 280400Z 12008KT 9999 FEW017 31/16 Q1011

TAF TAF VDSR
Valido dal 28 a 06 ore il 29 a 00 ore UTC


280500Z 2806/2824 20008KT 9999 SCT017



MetMap, La meteo Aeronautica in un colpo d'occhio ! - Copyright ORBIFLY Dicembre 2007 - Disclaimer

ORBIFLY MET'MAP TEAM :

Programmazione e sviluppo : Alexandra Zaïnal
Concezione : Baudouin d'Aumeries
Aiuto per la programmazione : Marc-Olivier Méhu
Supporto tecnico e logistico : Manuel Goepfert
Aiuto per la traduzione : Arnaldo La Scala

Contatto : metmap@orbifly.com




FONTI E CREDITI :

   NOAA       Earth
Advisory